sensor_id;sensor_type;location;lat;lon;timestamp;P1;durP1;ratioP1;P2;durP2;ratioP2
20365;SDS011;10341;49.894;8.822;2023-04-19T00:00:24;4.47;;;3.47;;
20365;SDS011;10341;49.894;8.822;2023-04-19T00:05:43;4.97;;;3.58;;
20365;SDS011;10341;49.894;8.822;2023-04-19T00:11:03;4.77;;;3.67;;
20365;SDS011;10341;49.894;8.822;2023-04-19T00:16:22;4.80;;;3.30;;
20365;SDS011;10341;49.894;8.822;2023-04-19T00:21:42;4.72;;;3.40;;
20365;SDS011;10341;49.894;8.822;2023-04-19T00:27:01;5.18;;;3.47;;
20365;SDS011;10341;49.894;8.822;2023-04-19T00:32:21;5.35;;;3.30;;
20365;SDS011;10341;49.894;8.822;2023-04-19T00:37:42;5.10;;;3.58;;
20365;SDS011;10341;49.894;8.822;2023-04-19T00:43:05;4.13;;;3.00;;
20365;SDS011;10341;49.894;8.822;2023-04-19T00:48:26;4.85;;;3.47;;
20365;SDS011;10341;49.894;8.822;2023-04-19T00:53:45;5.22;;;3.58;;
20365;SDS011;10341;49.894;8.822;2023-04-19T01:04:24;6.38;;;3.95;;
20365;SDS011;10341;49.894;8.822;2023-04-19T01:09:44;5.28;;;3.38;;
20365;SDS011;10341;49.894;8.822;2023-04-19T01:15:04;5.15;;;3.80;;
20365;SDS011;10341;49.894;8.822;2023-04-19T01:20:24;4.57;;;3.30;;
20365;SDS011;10341;49.894;8.822;2023-04-19T01:25:43;5.35;;;3.50;;
20365;SDS011;10341;49.894;8.822;2023-04-19T01:31:04;5.88;;;3.90;;
20365;SDS011;10341;49.894;8.822;2023-04-19T01:36:23;4.90;;;3.72;;
20365;SDS011;10341;49.894;8.822;2023-04-19T01:41:43;5.10;;;3.53;;
20365;SDS011;10341;49.894;8.822;2023-04-19T01:47:03;6.03;;;3.92;;
20365;SDS011;10341;49.894;8.822;2023-04-19T01:52:24;5.82;;;4.30;;
20365;SDS011;10341;49.894;8.822;2023-04-19T01:57:44;6.13;;;4.10;;
20365;SDS011;10341;49.894;8.822;2023-04-19T02:03:04;4.60;;;3.80;;
20365;SDS011;10341;49.894;8.822;2023-04-19T02:08:23;6.82;;;4.25;;
20365;SDS011;10341;49.894;8.822;2023-04-19T02:13:42;7.20;;;4.50;;
20365;SDS011;10341;49.894;8.822;2023-04-19T02:19:01;6.63;;;4.43;;
20365;SDS011;10341;49.894;8.822;2023-04-19T02:24:22;6.80;;;4.35;;
20365;SDS011;10341;49.894;8.822;2023-04-19T02:29:43;7.35;;;4.15;;
20365;SDS011;10341;49.894;8.822;2023-04-19T02:35:03;6.05;;;4.45;;
20365;SDS011;10341;49.894;8.822;2023-04-19T02:40:22;5.32;;;4.13;;
20365;SDS011;10341;49.894;8.822;2023-04-19T02:45:43;6.63;;;4.47;;
20365;SDS011;10341;49.894;8.822;2023-04-19T02:51:04;6.50;;;4.03;;
20365;SDS011;10341;49.894;8.822;2023-04-19T02:56:24;6.10;;;4.05;;
20365;SDS011;10341;49.894;8.822;2023-04-19T03:07:05;5.45;;;3.92;;
20365;SDS011;10341;49.894;8.822;2023-04-19T03:12:24;7.15;;;4.32;;
20365;SDS011;10341;49.894;8.822;2023-04-19T03:17:44;6.80;;;4.78;;
20365;SDS011;10341;49.894;8.822;2023-04-19T03:23:04;6.10;;;4.13;;
20365;SDS011;10341;49.894;8.822;2023-04-19T03:28:24;7.03;;;4.63;;
20365;SDS011;10341;49.894;8.822;2023-04-19T03:34:10;8.13;;;4.93;;
20365;SDS011;10341;49.894;8.822;2023-04-19T03:39:34;8.35;;;5.30;;
20365;SDS011;10341;49.894;8.822;2023-04-19T03:44:57;7.07;;;4.60;;
20365;SDS011;10341;49.894;8.822;2023-04-19T03:50:17;7.15;;;4.72;;
20365;SDS011;10341;49.894;8.822;2023-04-19T03:55:42;7.03;;;4.55;;
20365;SDS011;10341;49.894;8.822;2023-04-19T04:01:02;7.60;;;5.00;;
20365;SDS011;10341;49.894;8.822;2023-04-19T04:06:22;8.35;;;4.95;;
20365;SDS011;10341;49.894;8.822;2023-04-19T04:11:41;8.48;;;5.32;;
20365;SDS011;10341;49.894;8.822;2023-04-19T04:17:01;11.30;;;5.90;;
20365;SDS011;10341;49.894;8.822;2023-04-19T04:22:21;9.03;;;5.97;;
20365;SDS011;10341;49.894;8.822;2023-04-19T04:27:41;10.43;;;6.07;;
20365;SDS011;10341;49.894;8.822;2023-04-19T04:33:05;10.48;;;6.82;;
20365;SDS011;10341;49.894;8.822;2023-04-19T04:38:26;10.25;;;6.50;;
20365;SDS011;10341;49.894;8.822;2023-04-19T04:43:46;11.20;;;7.00;;
20365;SDS011;10341;49.894;8.822;2023-04-19T04:49:11;13.85;;;7.75;;
20365;SDS011;10341;49.894;8.822;2023-04-19T04:54:33;13.68;;;7.28;;
20365;SDS011;10341;49.894;8.822;2023-04-19T04:59:53;13.18;;;7.47;;
20365;SDS011;10341;49.894;8.822;2023-04-19T05:05:15;12.82;;;7.13;;
20365;SDS011;10341;49.894;8.822;2023-04-19T05:10:34;12.07;;;7.18;;
20365;SDS011;10341;49.894;8.822;2023-04-19T05:15:54;12.40;;;7.40;;
20365;SDS011;10341;49.894;8.822;2023-04-19T05:21:13;10.48;;;7.13;;
20365;SDS011;10341;49.894;8.822;2023-04-19T05:26:34;11.25;;;7.03;;
20365;SDS011;10341;49.894;8.822;2023-04-19T05:31:56;11.15;;;6.78;;
20365;SDS011;10341;49.894;8.822;2023-04-19T05:37:20;10.20;;;6.38;;
20365;SDS011;10341;49.894;8.822;2023-04-19T05:42:39;11.50;;;6.72;;
20365;SDS011;10341;49.894;8.822;2023-04-19T05:47:59;14.57;;;8.47;;
20365;SDS011;10341;49.894;8.822;2023-04-19T05:53:49;12.18;;;7.10;;
20365;SDS011;10341;49.894;8.822;2023-04-19T06:04:29;12.13;;;7.53;;
20365;SDS011;10341;49.894;8.822;2023-04-19T06:09:48;13.38;;;8.35;;
20365;SDS011;10341;49.894;8.822;2023-04-19T06:15:07;13.05;;;8.10;;
20365;SDS011;10341;49.894;8.822;2023-04-19T06:20:28;12.07;;;7.95;;
20365;SDS011;10341;49.894;8.822;2023-04-19T06:25:47;13.82;;;7.95;;
20365;SDS011;10341;49.894;8.822;2023-04-19T06:31:06;14.00;;;7.88;;
20365;SDS011;10341;49.894;8.822;2023-04-19T06:36:25;11.27;;;7.78;;
20365;SDS011;10341;49.894;8.822;2023-04-19T06:41:45;15.75;;;7.78;;
20365;SDS011;10341;49.894;8.822;2023-04-19T06:47:08;13.20;;;8.05;;
20365;SDS011;10341;49.894;8.822;2023-04-19T06:52:27;12.35;;;7.72;;
20365;SDS011;10341;49.894;8.822;2023-04-19T07:03:06;11.77;;;7.80;;
20365;SDS011;10341;49.894;8.822;2023-04-19T07:08:25;11.20;;;7.65;;
20365;SDS011;10341;49.894;8.822;2023-04-19T07:13:45;10.35;;;7.57;;
20365;SDS011;10341;49.894;8.822;2023-04-19T07:19:04;12.05;;;7.22;;
20365;SDS011;10341;49.894;8.822;2023-04-19T07:24:23;10.90;;;7.03;;
20365;SDS011;10341;49.894;8.822;2023-04-19T07:29:45;12.27;;;6.38;;
20365;SDS011;10341;49.894;8.822;2023-04-19T07:35:04;8.75;;;6.18;;
20365;SDS011;10341;49.894;8.822;2023-04-19T07:40:24;8.55;;;6.10;;
20365;SDS011;10341;49.894;8.822;2023-04-19T07:45:43;8.98;;;5.68;;
20365;SDS011;10341;49.894;8.822;2023-04-19T07:51:12;7.68;;;4.97;;
20365;SDS011;10341;49.894;8.822;2023-04-19T07:56:34;7.90;;;4.53;;
20365;SDS011;10341;49.894;8.822;2023-04-19T08:01:54;8.63;;;4.45;;
20365;SDS011;10341;49.894;8.822;2023-04-19T08:07:13;7.78;;;4.53;;
20365;SDS011;10341;49.894;8.822;2023-04-19T08:12:33;6.45;;;4.30;;
20365;SDS011;10341;49.894;8.822;2023-04-19T08:17:53;6.20;;;4.10;;
20365;SDS011;10341;49.894;8.822;2023-04-19T08:23:12;4.97;;;3.97;;
20365;SDS011;10341;49.894;8.822;2023-04-19T08:28:31;5.65;;;4.15;;
20365;SDS011;10341;49.894;8.822;2023-04-19T08:33:50;5.88;;;4.40;;
20365;SDS011;10341;49.894;8.822;2023-04-19T08:39:09;5.60;;;4.15;;
20365;SDS011;10341;49.894;8.822;2023-04-19T08:44:30;6.68;;;4.00;;
20365;SDS011;10341;49.894;8.822;2023-04-19T08:49:51;5.35;;;3.63;;
20365;SDS011;10341;49.894;8.822;2023-04-19T08:55:11;5.20;;;3.50;;
20365;SDS011;10341;49.894;8.822;2023-04-19T09:00:32;5.53;;;3.78;;
20365;SDS011;10341;49.894;8.822;2023-04-19T09:05:52;5.30;;;3.80;;
20365;SDS011;10341;49.894;8.822;2023-04-19T09:11:12;4.60;;;3.65;;
20365;SDS011;10341;49.894;8.822;2023-04-19T09:16:31;4.77;;;3.43;;
20365;SDS011;10341;49.894;8.822;2023-04-19T09:21:50;4.40;;;3.20;;
20365;SDS011;10341;49.894;8.822;2023-04-19T09:27:11;5.50;;;3.33;;
20365;SDS011;10341;49.894;8.822;2023-04-19T09:32:44;5.40;;;3.00;;
20365;SDS011;10341;49.894;8.822;2023-04-19T09:38:05;4.43;;;2.72;;
20365;SDS011;10341;49.894;8.822;2023-04-19T09:43:25;5.38;;;2.95;;
20365;SDS011;10341;49.894;8.822;2023-04-19T09:48:44;3.30;;;2.65;;
20365;SDS011;10341;49.894;8.822;2023-04-19T09:54:03;3.27;;;2.60;;
20365;SDS011;10341;49.894;8.822;2023-04-19T09:59:23;3.65;;;2.88;;
20365;SDS011;10341;49.894;8.822;2023-04-19T10:04:43;3.67;;;2.58;;
20365;SDS011;10341;49.894;8.822;2023-04-19T10:15:23;3.95;;;2.78;;
20365;SDS011;10341;49.894;8.822;2023-04-19T10:20:46;3.65;;;3.08;;
20365;SDS011;10341;49.894;8.822;2023-04-19T10:26:14;4.07;;;2.92;;
20365;SDS011;10341;49.894;8.822;2023-04-19T10:31:33;4.78;;;2.78;;
20365;SDS011;10341;49.894;8.822;2023-04-19T10:36:53;2.90;;;2.58;;
20365;SDS011;10341;49.894;8.822;2023-04-19T10:42:15;4.15;;;3.13;;
20365;SDS011;10341;49.894;8.822;2023-04-19T10:47:44;4.07;;;2.55;;
20365;SDS011;10341;49.894;8.822;2023-04-19T11:09:48;4.28;;;3.08;;
20365;SDS011;10341;49.894;8.822;2023-04-19T11:15:09;3.67;;;3.00;;
20365;SDS011;10341;49.894;8.822;2023-04-19T11:20:29;3.75;;;2.53;;
20365;SDS011;10341;49.894;8.822;2023-04-19T11:25:50;2.80;;;2.50;;
20365;SDS011;10341;49.894;8.822;2023-04-19T11:31:10;3.50;;;2.58;;
20365;SDS011;10341;49.894;8.822;2023-04-19T11:36:30;2.80;;;2.50;;
20365;SDS011;10341;49.894;8.822;2023-04-19T11:41:50;2.63;;;2.33;;
20365;SDS011;10341;49.894;8.822;2023-04-19T11:47:09;4.35;;;2.30;;
20365;SDS011;10341;49.894;8.822;2023-04-19T11:52:29;4.25;;;1.95;;
20365;SDS011;10341;49.894;8.822;2023-04-19T11:57:53;2.63;;;2.10;;
20365;SDS011;10341;49.894;8.822;2023-04-19T12:03:13;2.90;;;1.92;;
20365;SDS011;10341;49.894;8.822;2023-04-19T12:08:36;3.17;;;1.83;;
20365;SDS011;10341;49.894;8.822;2023-04-19T12:14:10;2.72;;;1.95;;
20365;SDS011;10341;49.894;8.822;2023-04-19T12:19:33;3.25;;;2.00;;
20365;SDS011;10341;49.894;8.822;2023-04-19T12:24:55;2.72;;;1.50;;
20365;SDS011;10341;49.894;8.822;2023-04-19T12:30:15;2.00;;;1.42;;
20365;SDS011;10341;49.894;8.822;2023-04-19T12:35:35;1.65;;;1.50;;
20365;SDS011;10341;49.894;8.822;2023-04-19T12:40:56;1.40;;;1.30;;
20365;SDS011;10341;49.894;8.822;2023-04-19T12:46:15;1.65;;;1.25;;
20365;SDS011;10341;49.894;8.822;2023-04-19T12:51:35;1.25;;;1.13;;
20365;SDS011;10341;49.894;8.822;2023-04-19T12:56:55;1.77;;;1.25;;
20365;SDS011;10341;49.894;8.822;2023-04-19T13:02:15;1.52;;;1.10;;
20365;SDS011;10341;49.894;8.822;2023-04-19T13:07:34;1.95;;;1.17;;
20365;SDS011;10341;49.894;8.822;2023-04-19T13:12:54;1.33;;;1.10;;
20365;SDS011;10341;49.894;8.822;2023-04-19T13:18:14;1.38;;;1.00;;
20365;SDS011;10341;49.894;8.822;2023-04-19T13:23:33;1.10;;;1.00;;
20365;SDS011;10341;49.894;8.822;2023-04-19T13:28:53;1.55;;;1.08;;
20365;SDS011;10341;49.894;8.822;2023-04-19T13:34:12;1.83;;;1.40;;
20365;SDS011;10341;49.894;8.822;2023-04-19T13:39:32;1.70;;;1.13;;
20365;SDS011;10341;49.894;8.822;2023-04-19T13:44:52;1.23;;;1.00;;
20365;SDS011;10341;49.894;8.822;2023-04-19T13:50:11;1.23;;;1.08;;
20365;SDS011;10341;49.894;8.822;2023-04-19T13:55:32;1.17;;;0.77;;
20365;SDS011;10341;49.894;8.822;2023-04-19T14:00:52;1.55;;;0.90;;
20365;SDS011;10341;49.894;8.822;2023-04-19T14:06:11;0.95;;;0.80;;
20365;SDS011;10341;49.894;8.822;2023-04-19T14:11:32;1.08;;;0.90;;
20365;SDS011;10341;49.894;8.822;2023-04-19T14:16:52;0.90;;;0.80;;
20365;SDS011;10341;49.894;8.822;2023-04-19T14:22:11;2.25;;;1.30;;
20365;SDS011;10341;49.894;8.822;2023-04-19T14:27:31;1.70;;;1.30;;
20365;SDS011;10341;49.894;8.822;2023-04-19T14:32:51;1.08;;;0.90;;
20365;SDS011;10341;49.894;8.822;2023-04-19T14:38:10;1.10;;;1.00;;
20365;SDS011;10341;49.894;8.822;2023-04-19T14:43:30;1.20;;;1.08;;
20365;SDS011;10341;49.894;8.822;2023-04-19T14:48:50;1.95;;;1.15;;
20365;SDS011;10341;49.894;8.822;2023-04-19T14:54:10;2.47;;;1.80;;
20365;SDS011;10341;49.894;8.822;2023-04-19T14:59:30;2.13;;;1.23;;
20365;SDS011;10341;49.894;8.822;2023-04-19T15:04:49;1.08;;;0.93;;
20365;SDS011;10341;49.894;8.822;2023-04-19T15:10:09;1.70;;;1.20;;
20365;SDS011;10341;49.894;8.822;2023-04-19T15:15:29;2.67;;;1.35;;
20365;SDS011;10341;49.894;8.822;2023-04-19T15:20:49;1.75;;;1.27;;
20365;SDS011;10341;49.894;8.822;2023-04-19T15:26:08;1.30;;;1.20;;
20365;SDS011;10341;49.894;8.822;2023-04-19T15:31:28;1.08;;;1.00;;
20365;SDS011;10341;49.894;8.822;2023-04-19T15:36:47;2.17;;;1.30;;
20365;SDS011;10341;49.894;8.822;2023-04-19T15:42:07;1.35;;;1.20;;
20365;SDS011;10341;49.894;8.822;2023-04-19T15:47:26;2.60;;;1.10;;
20365;SDS011;10341;49.894;8.822;2023-04-19T15:58:05;3.40;;;1.50;;
20365;SDS011;10341;49.894;8.822;2023-04-19T16:03:25;1.35;;;1.20;;
20365;SDS011;10341;49.894;8.822;2023-04-19T16:14:04;2.00;;;1.23;;
20365;SDS011;10341;49.894;8.822;2023-04-19T16:24:42;2.03;;;1.60;;
20365;SDS011;10341;49.894;8.822;2023-04-19T16:30:04;1.23;;;1.13;;
20365;SDS011;10341;49.894;8.822;2023-04-19T16:35:24;2.65;;;1.30;;
20365;SDS011;10341;49.894;8.822;2023-04-19T16:40:44;2.95;;;1.60;;
20365;SDS011;10341;49.894;8.822;2023-04-19T16:46:06;3.00;;;1.65;;
20365;SDS011;10341;49.894;8.822;2023-04-19T16:56:46;1.60;;;1.40;;
20365;SDS011;10341;49.894;8.822;2023-04-19T17:02:06;2.20;;;1.60;;
20365;SDS011;10341;49.894;8.822;2023-04-19T17:07:26;2.72;;;1.50;;
20365;SDS011;10341;49.894;8.822;2023-04-19T17:12:46;4.03;;;2.15;;
20365;SDS011;10341;49.894;8.822;2023-04-19T17:18:05;3.40;;;1.50;;
20365;SDS011;10341;49.894;8.822;2023-04-19T17:23:25;3.85;;;1.55;;
20365;SDS011;10341;49.894;8.822;2023-04-19T17:28:44;3.17;;;1.65;;
20365;SDS011;10341;49.894;8.822;2023-04-19T17:34:04;3.40;;;1.53;;
20365;SDS011;10341;49.894;8.822;2023-04-19T17:39:23;5.78;;;1.65;;
20365;SDS011;10341;49.894;8.822;2023-04-19T17:44:45;3.53;;;2.03;;
20365;SDS011;10341;49.894;8.822;2023-04-19T17:50:09;3.10;;;1.90;;
20365;SDS011;10341;49.894;8.822;2023-04-19T17:55:30;2.55;;;1.83;;
20365;SDS011;10341;49.894;8.822;2023-04-19T18:00:49;2.87;;;1.70;;
20365;SDS011;10341;49.894;8.822;2023-04-19T18:06:09;5.43;;;2.17;;
20365;SDS011;10341;49.894;8.822;2023-04-19T18:11:29;2.20;;;1.70;;
20365;SDS011;10341;49.894;8.822;2023-04-19T18:16:49;4.00;;;2.57;;
20365;SDS011;10341;49.894;8.822;2023-04-19T18:22:08;4.13;;;2.00;;
20365;SDS011;10341;49.894;8.822;2023-04-19T18:27:28;3.40;;;2.03;;
20365;SDS011;10341;49.894;8.822;2023-04-19T18:32:48;2.50;;;1.77;;
20365;SDS011;10341;49.894;8.822;2023-04-19T18:38:08;3.17;;;1.80;;
20365;SDS011;10341;49.894;8.822;2023-04-19T18:43:31;3.45;;;2.10;;
20365;SDS011;10341;49.894;8.822;2023-04-19T18:48:51;4.35;;;1.95;;
20365;SDS011;10341;49.894;8.822;2023-04-19T18:54:11;4.38;;;2.30;;
20365;SDS011;10341;49.894;8.822;2023-04-19T18:59:30;3.17;;;2.10;;
20365;SDS011;10341;49.894;8.822;2023-04-19T19:04:51;5.20;;;2.38;;
20365;SDS011;10341;49.894;8.822;2023-04-19T19:10:11;2.22;;;1.90;;
20365;SDS011;10341;49.894;8.822;2023-04-19T19:15:32;4.32;;;2.00;;
20365;SDS011;10341;49.894;8.822;2023-04-19T19:20:57;4.35;;;2.05;;
20365;SDS011;10341;49.894;8.822;2023-04-19T19:26:18;3.47;;;2.17;;
20365;SDS011;10341;49.894;8.822;2023-04-19T19:31:38;3.22;;;2.10;;
20365;SDS011;10341;49.894;8.822;2023-04-19T19:36:57;8.23;;;3.97;;
20365;SDS011;10341;49.894;8.822;2023-04-19T19:42:17;5.63;;;3.17;;
20365;SDS011;10341;49.894;8.822;2023-04-19T19:52:57;3.47;;;2.38;;
20365;SDS011;10341;49.894;8.822;2023-04-19T19:58:16;2.67;;;2.22;;
20365;SDS011;10341;49.894;8.822;2023-04-19T20:03:36;3.10;;;2.40;;
20365;SDS011;10341;49.894;8.822;2023-04-19T20:08:56;4.97;;;2.35;;
20365;SDS011;10341;49.894;8.822;2023-04-19T20:14:16;6.63;;;3.45;;
20365;SDS011;10341;49.894;8.822;2023-04-19T20:19:36;6.28;;;2.83;;
20365;SDS011;10341;49.894;8.822;2023-04-19T20:24:56;4.28;;;2.30;;
20365;SDS011;10341;49.894;8.822;2023-04-19T20:30:16;3.88;;;2.17;;
20365;SDS011;10341;49.894;8.822;2023-04-19T20:35:36;3.47;;;2.47;;
20365;SDS011;10341;49.894;8.822;2023-04-19T20:40:55;4.70;;;3.05;;
20365;SDS011;10341;49.894;8.822;2023-04-19T20:46:15;7.70;;;3.63;;
20365;SDS011;10341;49.894;8.822;2023-04-19T20:51:34;10.32;;;5.78;;
20365;SDS011;10341;49.894;8.822;2023-04-19T20:56:58;6.70;;;3.45;;
20365;SDS011;10341;49.894;8.822;2023-04-19T21:02:19;8.00;;;3.80;;
20365;SDS011;10341;49.894;8.822;2023-04-19T21:07:39;7.20;;;2.88;;
20365;SDS011;10341;49.894;8.822;2023-04-19T21:12:58;5.43;;;2.53;;
20365;SDS011;10341;49.894;8.822;2023-04-19T21:18:18;5.55;;;3.10;;
20365;SDS011;10341;49.894;8.822;2023-04-19T21:23:38;5.53;;;2.42;;
20365;SDS011;10341;49.894;8.822;2023-04-19T21:28:57;5.17;;;2.37;;
20365;SDS011;10341;49.894;8.822;2023-04-19T21:34:16;5.00;;;2.00;;
20365;SDS011;10341;49.894;8.822;2023-04-19T21:39:36;3.30;;;2.33;;
20365;SDS011;10341;49.894;8.822;2023-04-19T21:44:56;2.30;;;1.90;;
20365;SDS011;10341;49.894;8.822;2023-04-19T21:50:15;4.60;;;2.33;;
20365;SDS011;10341;49.894;8.822;2023-04-19T21:55:35;5.13;;;2.03;;
20365;SDS011;10341;49.894;8.822;2023-04-19T22:00:54;3.83;;;2.47;;
20365;SDS011;10341;49.894;8.822;2023-04-19T22:06:13;4.40;;;2.10;;
20365;SDS011;10341;49.894;8.822;2023-04-19T22:11:35;3.88;;;2.03;;
20365;SDS011;10341;49.894;8.822;2023-04-19T22:16:54;3.97;;;2.13;;
20365;SDS011;10341;49.894;8.822;2023-04-19T22:22:13;4.07;;;2.15;;
20365;SDS011;10341;49.894;8.822;2023-04-19T22:27:33;8.82;;;3.10;;
20365;SDS011;10341;49.894;8.822;2023-04-19T22:32:52;5.03;;;2.28;;
20365;SDS011;10341;49.894;8.822;2023-04-19T22:38:12;4.60;;;2.17;;
20365;SDS011;10341;49.894;8.822;2023-04-19T22:43:31;3.77;;;2.27;;
20365;SDS011;10341;49.894;8.822;2023-04-19T22:48:51;3.38;;;1.92;;
20365;SDS011;10341;49.894;8.822;2023-04-19T22:54:10;6.22;;;2.22;;
20365;SDS011;10341;49.894;8.822;2023-04-19T22:59:30;4.85;;;2.17;;
20365;SDS011;10341;49.894;8.822;2023-04-19T23:04:49;4.53;;;2.40;;
20365;SDS011;10341;49.894;8.822;2023-04-19T23:10:10;2.88;;;2.42;;
20365;SDS011;10341;49.894;8.822;2023-04-19T23:15:30;4.53;;;2.47;;
20365;SDS011;10341;49.894;8.822;2023-04-19T23:20:49;3.85;;;2.47;;
20365;SDS011;10341;49.894;8.822;2023-04-19T23:26:09;3.10;;;2.40;;
20365;SDS011;10341;49.894;8.822;2023-04-19T23:31:28;4.50;;;2.50;;
20365;SDS011;10341;49.894;8.822;2023-04-19T23:36:47;4.10;;;2.60;;
20365;SDS011;10341;49.894;8.822;2023-04-19T23:42:06;6.00;;;2.80;;
20365;SDS011;10341;49.894;8.822;2023-04-19T23:47:26;3.85;;;2.47;;
20365;SDS011;10341;49.894;8.822;2023-04-19T23:52:45;4.10;;;2.65;;
20365;SDS011;10341;49.894;8.822;2023-04-19T23:58:04;2.47;;;1.83;;
